Dies, Texas
Current Conditions -  °F | °C
As of 5:15 PM on Thursday 27 Nov 2014 (Local Time) from KJAS Reporting Station
Clear Clear  
Wind Chill: 56°   Ceiling: Unl
Heat Index: 56°   Visibility: 10mi
Dew Point: 34°   Wind: 3mph
Humidity: 44%   Direction: 60°ENE
Pressure: 30.46"   Gusts: NA
Location:  30.7643°N, 94.4448°W
Report Text: KJAS 272315Z AUTO 06003KT 10SM CLR 13/01 A3046 RMK AO2 T01320011
Loading
Personal Weather Stations






























Interactive Weather Map New forecast layout! Learn more

10-Day Weather Forecast

Advertisements
Track Severe Weather on mobile